SHSR weather

Public forecast

Using degrees Celsius for public forecast. Weather courtesy of forecast.io.

Closest aviation weather report (METAR) to Edificio Torre San Ramón Heliport

Report is more than 2 hours old.

Closest report is Eulogio Sánchez Airport, 3.7 nm (6.9 km) SE. Retrieved 2020/08/08 22:00 UTC (4 hours ago):

SCTB 082200Z 00000KT CAVOK 21/03 Q1019

Closest aviation forecast (TAF) to Edificio Torre San Ramón Heliport

Closest forecast is Comodoro Arturo Merino Benítez International Airport, 9.2 nm (17.1 km) W. Retrieved 2020-08-09 00:00 UTC (2 hours ago):

TAF SCEL 082220Z 0900/0924 16005KT CAVOK TX19/0918Z TN06/0910Z BECMG 0902/0904 VRB02KT 8000 NSC TEMPO 0908/0912 5000 BR BKN180 BECMG 0915/0917 18006KT CAVOK